sensor_id;sensor_type;location;lat;lon;timestamp;pressure;altitude;pressure_sealevel;temperature;humidity
10064;BME280;5071;52.360;13.134;2022-08-19T00:02:04;100552.28;;;21.74;82.25
10064;BME280;5071;52.360;13.134;2022-08-19T00:07:06;100534.69;;;21.67;82.86
10064;BME280;5071;52.360;13.134;2022-08-19T00:12:10;100497.06;;;21.50;83.98
10064;BME280;5071;52.360;13.134;2022-08-19T00:17:12;100487.38;;;21.31;84.69
10064;BME280;5071;52.360;13.134;2022-08-19T00:22:14;100517.94;;;21.32;84.57
10064;BME280;5071;52.360;13.134;2022-08-19T00:27:19;100524.41;;;21.29;85.04
10064;BME280;5071;52.360;13.134;2022-08-19T00:32:27;100522.38;;;21.33;85.40
10064;BME280;5071;52.360;13.134;2022-08-19T00:37:30;100526.16;;;21.30;85.60
10064;BME280;5071;52.360;13.134;2022-08-19T00:42:33;100524.78;;;21.23;85.61
10064;BME280;5071;52.360;13.134;2022-08-19T00:47:36;100511.63;;;21.17;85.85
10064;BME280;5071;52.360;13.134;2022-08-19T00:52:42;100503.22;;;21.07;85.94
10064;BME280;5071;52.360;13.134;2022-08-19T00:57:53;100487.50;;;21.00;86.10
10064;BME280;5071;52.360;13.134;2022-08-19T01:02:57;100514.22;;;21.04;86.70
10064;BME280;5071;52.360;13.134;2022-08-19T01:08:01;100528.41;;;21.08;87.00
10064;BME280;5071;52.360;13.134;2022-08-19T01:13:05;100515.53;;;20.97;87.75
10064;BME280;5071;52.360;13.134;2022-08-19T01:18:10;100535.47;;;20.94;88.49
10064;BME280;5071;52.360;13.134;2022-08-19T01:23:15;100531.03;;;20.93;88.37
10064;BME280;5071;52.360;13.134;2022-08-19T01:28:20;100533.31;;;20.85;89.21
10064;BME280;5071;52.360;13.134;2022-08-19T01:33:40;100563.69;;;20.89;89.01
10064;BME280;5071;52.360;13.134;2022-08-19T01:38:44;100561.59;;;20.94;88.81
10064;BME280;5071;52.360;13.134;2022-08-19T01:43:46;100569.75;;;20.92;89.45
10064;BME280;5071;52.360;13.134;2022-08-19T01:49:09;100557.69;;;20.84;89.80
10064;BME280;5071;52.360;13.134;2022-08-19T01:54:15;100523.25;;;20.73;90.67
10064;BME280;5071;52.360;13.134;2022-08-19T01:59:29;100511.16;;;20.64;91.89
10064;BME280;5071;52.360;13.134;2022-08-19T02:04:33;100491.06;;;20.54;93.13
10064;BME280;5071;52.360;13.134;2022-08-19T02:09:38;100476.78;;;20.36;92.84
10064;BME280;5071;52.360;13.134;2022-08-19T02:14:39;100502.03;;;20.35;93.78
10064;BME280;5071;52.360;13.134;2022-08-19T02:19:42;100476.78;;;20.36;93.40
10064;BME280;5071;52.360;13.134;2022-08-19T02:24:45;100478.88;;;20.31;93.75
10064;BME280;5071;52.360;13.134;2022-08-19T02:29:48;100472.53;;;20.32;93.55
10064;BME280;5071;52.360;13.134;2022-08-19T02:34:51;100439.50;;;20.28;93.59
10064;BME280;5071;52.360;13.134;2022-08-19T02:39:54;100426.88;;;20.29;93.70
10064;BME280;5071;52.360;13.134;2022-08-19T02:44:57;100425.94;;;20.30;93.48
10064;BME280;5071;52.360;13.134;2022-08-19T02:50:00;100434.03;;;20.30;93.81
10064;BME280;5071;52.360;13.134;2022-08-19T02:55:06;100449.34;;;20.29;93.93
10064;BME280;5071;52.360;13.134;2022-08-19T03:00:09;100439.41;;;20.30;93.74
10064;BME280;5071;52.360;13.134;2022-08-19T03:05:11;100443.06;;;20.29;93.32
10064;BME280;5071;52.360;13.134;2022-08-19T03:10:15;100444.97;;;20.27;93.61
10064;BME280;5071;52.360;13.134;2022-08-19T03:15:18;100444.97;;;20.27;93.30
10064;BME280;5071;52.360;13.134;2022-08-19T03:20:20;100438.03;;;20.23;93.88
10064;BME280;5071;52.360;13.134;2022-08-19T03:25:23;100432.56;;;20.24;93.71
10064;BME280;5071;52.360;13.134;2022-08-19T03:30:26;100431.69;;;20.24;93.62
10064;BME280;5071;52.360;13.134;2022-08-19T03:35:27;100427.41;;;20.19;93.17
10064;BME280;5071;52.360;13.134;2022-08-19T03:40:32;100430.03;;;20.21;93.31
10064;BME280;5071;52.360;13.134;2022-08-19T03:45:34;100411.34;;;20.18;93.60
10064;BME280;5071;52.360;13.134;2022-08-19T03:50:38;100397.00;;;20.17;93.32
10064;BME280;5071;52.360;13.134;2022-08-19T03:55:42;100398.22;;;20.12;93.97
10064;BME280;5071;52.360;13.134;2022-08-19T04:00:44;100405.53;;;20.10;94.13
10064;BME280;5071;52.360;13.134;2022-08-19T04:05:46;100415.44;;;20.09;94.09
10064;BME280;5071;52.360;13.134;2022-08-19T04:10:50;100424.22;;;20.13;93.94
10064;BME280;5071;52.360;13.134;2022-08-19T04:15:53;100438.56;;;20.13;94.25
10064;BME280;5071;52.360;13.134;2022-08-19T04:20:54;100424.72;;;20.19;93.88
10064;BME280;5071;52.360;13.134;2022-08-19T04:25:58;100431.09;;;20.18;94.37
10064;BME280;5071;52.360;13.134;2022-08-19T04:31:00;100451.50;;;20.23;94.15
10064;BME280;5071;52.360;13.134;2022-08-19T04:36:02;100445.66;;;20.30;94.14
10064;BME280;5071;52.360;13.134;2022-08-19T04:41:05;100456.97;;;20.37;94.14
10064;BME280;5071;52.360;13.134;2022-08-19T04:46:08;100447.22;;;20.34;93.45
10064;BME280;5071;52.360;13.134;2022-08-19T04:51:12;100458.09;;;20.49;92.91
10064;BME280;5071;52.360;13.134;2022-08-19T04:56:17;100441.22;;;20.45;92.69
10064;BME280;5071;52.360;13.134;2022-08-19T05:01:21;100432.53;;;20.40;92.40
10064;BME280;5071;52.360;13.134;2022-08-19T05:06:23;100431.91;;;20.51;91.90
10064;BME280;5071;52.360;13.134;2022-08-19T05:11:30;100427.38;;;20.67;90.87
10064;BME280;5071;52.360;13.134;2022-08-19T05:16:32;100416.91;;;20.77;89.57
10064;BME280;5071;52.360;13.134;2022-08-19T05:21:35;100429.06;;;20.84;89.93
10064;BME280;5071;52.360;13.134;2022-08-19T05:26:40;100429.91;;;20.85;89.70
10064;BME280;5071;52.360;13.134;2022-08-19T05:31:44;100450.66;;;21.86;85.14
10064;BME280;5071;52.360;13.134;2022-08-19T05:36:47;100461.94;;;21.93;83.77
10064;BME280;5071;52.360;13.134;2022-08-19T05:41:53;100472.25;;;21.86;83.76
10064;BME280;5071;52.360;13.134;2022-08-19T05:46:55;100480.09;;;21.62;85.15
10064;BME280;5071;52.360;13.134;2022-08-19T05:51:58;100492.06;;;21.58;85.00
10064;BME280;5071;52.360;13.134;2022-08-19T05:57:02;100472.28;;;21.58;85.30
10064;BME280;5071;52.360;13.134;2022-08-19T06:02:05;100446.00;;;21.31;86.69
10064;BME280;5071;52.360;13.134;2022-08-19T06:07:07;100443.84;;;21.66;86.19
10064;BME280;5071;52.360;13.134;2022-08-19T06:12:14;100438.91;;;22.29;83.59
10064;BME280;5071;52.360;13.134;2022-08-19T06:17:19;100465.00;;;22.01;84.36
10064;BME280;5071;52.360;13.134;2022-08-19T06:22:21;100481.88;;;22.19;83.06
10064;BME280;5071;52.360;13.134;2022-08-19T06:27:25;100516.84;;;22.64;81.73
10064;BME280;5071;52.360;13.134;2022-08-19T06:32:27;100511.28;;;22.52;81.59
10064;BME280;5071;52.360;13.134;2022-08-19T06:37:29;100517.53;;;22.67;81.36
10064;BME280;5071;52.360;13.134;2022-08-19T06:42:33;100513.63;;;22.71;80.86
10064;BME280;5071;52.360;13.134;2022-08-19T06:47:35;100501.38;;;22.66;81.34
10064;BME280;5071;52.360;13.134;2022-08-19T06:52:37;100497.50;;;22.70;81.52
10064;BME280;5071;52.360;13.134;2022-08-19T06:57:40;100489.84;;;22.89;80.13
10064;BME280;5071;52.360;13.134;2022-08-19T07:02:43;100491.59;;;22.50;81.63
10064;BME280;5071;52.360;13.134;2022-08-19T07:07:58;100490.41;;;22.95;80.86
10064;BME280;5071;52.360;13.134;2022-08-19T07:13:06;100499.59;;;23.19;79.09
10064;BME280;5071;52.360;13.134;2022-08-19T07:18:08;100517.69;;;22.91;79.63
10064;BME280;5071;52.360;13.134;2022-08-19T07:23:13;100515.53;;;22.97;80.84
10064;BME280;5071;52.360;13.134;2022-08-19T07:28:18;100531.88;;;22.95;80.64
10064;BME280;5071;52.360;13.134;2022-08-19T07:33:25;100535.88;;;23.17;78.88
10064;BME280;5071;52.360;13.134;2022-08-19T07:38:28;100543.97;;;23.04;79.55
10064;BME280;5071;52.360;13.134;2022-08-19T07:43:31;100540.13;;;23.21;78.65
10064;BME280;5071;52.360;13.134;2022-08-19T07:48:35;100550.22;;;23.32;78.38
10064;BME280;5071;52.360;13.134;2022-08-19T07:53:38;100555.59;;;23.19;78.34
10064;BME280;5071;52.360;13.134;2022-08-19T07:58:44;100552.91;;;23.19;79.11
10064;BME280;5071;52.360;13.134;2022-08-19T08:03:47;100559.66;;;23.52;77.96
10064;BME280;5071;52.360;13.134;2022-08-19T08:08:49;100568.88;;;23.49;78.04
10064;BME280;5071;52.360;13.134;2022-08-19T08:13:54;100560.34;;;23.81;76.21
10064;BME280;5071;52.360;13.134;2022-08-19T08:19:03;100580.59;;;23.62;76.76
10064;BME280;5071;52.360;13.134;2022-08-19T08:24:27;100586.09;;;23.61;77.16
10064;BME280;5071;52.360;13.134;2022-08-19T08:29:33;100571.91;;;23.57;77.02
10064;BME280;5071;52.360;13.134;2022-08-19T08:34:35;100572.53;;;23.35;77.94
10064;BME280;5071;52.360;13.134;2022-08-19T08:39:37;100581.63;;;23.34;77.98
10064;BME280;5071;52.360;13.134;2022-08-19T08:44:48;100588.19;;;23.17;78.76
10064;BME280;5071;52.360;13.134;2022-08-19T08:50:02;100588.97;;;23.19;77.85
10064;BME280;5071;52.360;13.134;2022-08-19T08:55:10;100592.56;;;23.33;78.13
10064;BME280;5071;52.360;13.134;2022-08-19T09:00:17;100582.97;;;23.54;77.12
10064;BME280;5071;52.360;13.134;2022-08-19T09:05:20;100604.97;;;23.62;77.06
10064;BME280;5071;52.360;13.134;2022-08-19T09:10:30;100620.28;;;23.63;77.47
10064;BME280;5071;52.360;13.134;2022-08-19T09:15:41;100602.00;;;24.05;76.82
10064;BME280;5071;52.360;13.134;2022-08-19T09:20:46;100591.91;;;24.08;75.62
10064;BME280;5071;52.360;13.134;2022-08-19T09:25:48;100597.84;;;23.61;77.32
10064;BME280;5071;52.360;13.134;2022-08-19T09:30:52;100586.53;;;23.55;77.60
10064;BME280;5071;52.360;13.134;2022-08-19T09:36:02;100587.94;;;23.47;78.54
10064;BME280;5071;52.360;13.134;2022-08-19T09:41:12;100583.81;;;23.42;78.60
10064;BME280;5071;52.360;13.134;2022-08-19T09:46:19;100581.63;;;23.34;78.55
10064;BME280;5071;52.360;13.134;2022-08-19T09:51:25;100589.28;;;23.00;80.50
10064;BME280;5071;52.360;13.134;2022-08-19T09:56:29;100600.13;;;23.00;80.96
10064;BME280;5071;52.360;13.134;2022-08-19T10:01:35;100598.34;;;22.86;81.04
10064;BME280;5071;52.360;13.134;2022-08-19T10:06:39;100598.88;;;22.91;80.71
10064;BME280;5071;52.360;13.134;2022-08-19T10:11:47;100594.09;;;22.82;81.15
10064;BME280;5071;52.360;13.134;2022-08-19T10:16:57;100591.59;;;22.79;81.99
10064;BME280;5071;52.360;13.134;2022-08-19T10:22:02;100588.44;;;23.00;80.85
10064;BME280;5071;52.360;13.134;2022-08-19T10:27:05;100585.09;;;22.82;81.46
10064;BME280;5071;52.360;13.134;2022-08-19T10:32:10;100584.91;;;22.85;81.66
10064;BME280;5071;52.360;13.134;2022-08-19T10:37:15;100587.44;;;23.01;80.67
10064;BME280;5071;52.360;13.134;2022-08-19T10:42:29;100584.53;;;23.18;79.27
10064;BME280;5071;52.360;13.134;2022-08-19T10:47:34;100579.75;;;22.95;80.25
10064;BME280;5071;52.360;13.134;2022-08-19T10:52:36;100583.06;;;22.85;80.63
10064;BME280;5071;52.360;13.134;2022-08-19T10:57:39;100587.91;;;22.80;81.38
10064;BME280;5071;52.360;13.134;2022-08-19T11:03:03;100604.41;;;22.48;82.30
10064;BME280;5071;52.360;13.134;2022-08-19T11:08:04;100606.06;;;22.37;83.15
10064;BME280;5071;52.360;13.134;2022-08-19T11:13:24;100602.50;;;22.50;82.73
10064;BME280;5071;52.360;13.134;2022-08-19T11:18:27;100606.34;;;22.46;82.00
10064;BME280;5071;52.360;13.134;2022-08-19T11:23:29;100601.69;;;22.48;82.44
10064;BME280;5071;52.360;13.134;2022-08-19T11:28:31;100608.50;;;22.41;82.00
10064;BME280;5071;52.360;13.134;2022-08-19T11:33:34;100601.31;;;22.55;82.11
10064;BME280;5071;52.360;13.134;2022-08-19T11:38:37;100607.06;;;22.77;80.76
10064;BME280;5071;52.360;13.134;2022-08-19T11:43:39;100605.91;;;22.81;80.33
10064;BME280;5071;52.360;13.134;2022-08-19T11:48:43;100617.50;;;22.69;81.28
10064;BME280;5071;52.360;13.134;2022-08-19T11:53:45;100618.44;;;22.82;80.94
10064;BME280;5071;52.360;13.134;2022-08-19T11:58:48;100625.34;;;22.74;80.57
10064;BME280;5071;52.360;13.134;2022-08-19T12:03:53;100635.72;;;22.38;82.00
10064;BME280;5071;52.360;13.134;2022-08-19T12:08:58;100627.44;;;22.41;81.38
10064;BME280;5071;52.360;13.134;2022-08-19T12:14:01;100637.75;;;22.35;81.64
10064;BME280;5071;52.360;13.134;2022-08-19T12:19:05;100649.22;;;22.24;82.09
10064;BME280;5071;52.360;13.134;2022-08-19T12:24:07;100651.91;;;22.24;82.81
10064;BME280;5071;52.360;13.134;2022-08-19T12:29:09;100646.38;;;22.41;81.54
10064;BME280;5071;52.360;13.134;2022-08-19T12:34:12;100644.78;;;22.51;81.05
10064;BME280;5071;52.360;13.134;2022-08-19T12:39:14;100650.47;;;22.76;79.84
10064;BME280;5071;52.360;13.134;2022-08-19T12:44:17;100639.91;;;22.71;80.27
10064;BME280;5071;52.360;13.134;2022-08-19T12:49:21;100651.38;;;22.47;80.54
10064;BME280;5071;52.360;13.134;2022-08-19T12:54:44;100656.19;;;22.57;80.41
10064;BME280;5071;52.360;13.134;2022-08-19T12:59:46;100662.59;;;22.41;81.32
10064;BME280;5071;52.360;13.134;2022-08-19T13:04:49;100668.09;;;22.40;81.60
10064;BME280;5071;52.360;13.134;2022-08-19T13:09:51;100678.59;;;22.44;81.22
10064;BME280;5071;52.360;13.134;2022-08-19T13:14:54;100674.38;;;22.40;81.29
10064;BME280;5071;52.360;13.134;2022-08-19T13:19:58;100668.00;;;22.27;81.88
10064;BME280;5071;52.360;13.134;2022-08-19T13:24:59;100667.78;;;22.44;81.32
10064;BME280;5071;52.360;13.134;2022-08-19T13:30:03;100658.47;;;22.20;82.35
10064;BME280;5071;52.360;13.134;2022-08-19T13:35:06;100664.13;;;22.45;81.22
10064;BME280;5071;52.360;13.134;2022-08-19T13:40:12;100661.63;;;22.57;81.04
10064;BME280;5071;52.360;13.134;2022-08-19T13:45:17;100657.53;;;22.35;81.50
10064;BME280;5071;52.360;13.134;2022-08-19T13:50:23;100654.06;;;22.33;82.07
10064;BME280;5071;52.360;13.134;2022-08-19T13:55:26;100651.97;;;22.38;81.64
10064;BME280;5071;52.360;13.134;2022-08-19T14:00:31;100649.03;;;22.56;80.67
10064;BME280;5071;52.360;13.134;2022-08-19T14:05:36;100654.84;;;22.49;80.88
10064;BME280;5071;52.360;13.134;2022-08-19T14:10:38;100653.41;;;22.29;82.58
10064;BME280;5071;52.360;13.134;2022-08-19T14:15:41;100653.47;;;22.28;82.35
10064;BME280;5071;52.360;13.134;2022-08-19T14:20:44;100653.22;;;22.32;82.15
10064;BME280;5071;52.360;13.134;2022-08-19T14:25:46;100653.22;;;22.32;82.23
10064;BME280;5071;52.360;13.134;2022-08-19T14:30:48;100653.22;;;22.32;82.56
10064;BME280;5071;52.360;13.134;2022-08-19T14:35:57;100654.97;;;22.34;81.71
10064;BME280;5071;52.360;13.134;2022-08-19T14:41:12;100659.78;;;22.28;81.86
10064;BME280;5071;52.360;13.134;2022-08-19T14:46:17;100662.34;;;22.16;82.54
10064;BME280;5071;52.360;13.134;2022-08-19T14:51:24;100664.28;;;22.13;82.91
10064;BME280;5071;52.360;13.134;2022-08-19T14:56:28;100673.16;;;22.16;82.37
10064;BME280;5071;52.360;13.134;2022-08-19T15:01:30;100678.38;;;22.19;82.43
10064;BME280;5071;52.360;13.134;2022-08-19T15:06:34;100688.13;;;22.21;82.05
10064;BME280;5071;52.360;13.134;2022-08-19T15:11:36;100691.88;;;22.04;82.74
10064;BME280;5071;52.360;13.134;2022-08-19T15:16:38;100699.91;;;22.06;82.24
10064;BME280;5071;52.360;13.134;2022-08-19T15:21:41;100700.47;;;21.97;82.80
10064;BME280;5071;52.360;13.134;2022-08-19T15:26:42;100717.53;;;21.97;83.21
10064;BME280;5071;52.360;13.134;2022-08-19T15:31:44;100722.94;;;21.97;83.03
10064;BME280;5071;52.360;13.134;2022-08-19T15:36:50;100720.78;;;21.88;83.09
10064;BME280;5071;52.360;13.134;2022-08-19T15:41:53;100713.66;;;21.87;83.26
10064;BME280;5071;52.360;13.134;2022-08-19T15:46:55;100703.50;;;21.76;84.12
10064;BME280;5071;52.360;13.134;2022-08-19T15:51:59;100709.06;;;21.73;83.98
10064;BME280;5071;52.360;13.134;2022-08-19T15:57:01;100698.78;;;21.80;83.96
10064;BME280;5071;52.360;13.134;2022-08-19T16:02:02;100702.03;;;21.70;83.83
10064;BME280;5071;52.360;13.134;2022-08-19T16:07:06;100695.56;;;21.73;84.10
10064;BME280;5071;52.360;13.134;2022-08-19T16:12:08;100699.47;;;21.83;83.79
10064;BME280;5071;52.360;13.134;2022-08-19T16:17:11;100695.66;;;22.02;83.24
10064;BME280;5071;52.360;13.134;2022-08-19T16:22:16;100703.56;;;22.05;82.33
10064;BME280;5071;52.360;13.134;2022-08-19T16:27:18;100713.50;;;22.04;82.31
10064;BME280;5071;52.360;13.134;2022-08-19T16:32:19;100714.66;;;22.14;82.03
10064;BME280;5071;52.360;13.134;2022-08-19T16:37:23;100717.94;;;22.05;82.30
10064;BME280;5071;52.360;13.134;2022-08-19T16:42:25;100712.97;;;21.83;82.76
10064;BME280;5071;52.360;13.134;2022-08-19T16:47:27;100712.53;;;21.75;83.17
10064;BME280;5071;52.360;13.134;2022-08-19T16:52:30;100713.78;;;21.69;84.31
10064;BME280;5071;52.360;13.134;2022-08-19T16:57:33;100715.53;;;21.70;83.74
10064;BME280;5071;52.360;13.134;2022-08-19T17:02:34;100705.44;;;21.58;84.25
10064;BME280;5071;52.360;13.134;2022-08-19T17:07:38;100710.69;;;21.61;84.66
10064;BME280;5071;52.360;13.134;2022-08-19T17:12:40;100703.44;;;21.62;84.55
10064;BME280;5071;52.360;13.134;2022-08-19T17:17:42;100712.69;;;21.58;84.26
10064;BME280;5071;52.360;13.134;2022-08-19T17:22:45;100717.72;;;21.64;83.86
10064;BME280;5071;52.360;13.134;2022-08-19T17:27:47;100716.94;;;21.62;83.63
10064;BME280;5071;52.360;13.134;2022-08-19T17:32:50;100721.25;;;21.50;83.97
10064;BME280;5071;52.360;13.134;2022-08-19T17:37:53;100725.38;;;21.40;84.92
10064;BME280;5071;52.360;13.134;2022-08-19T17:42:55;100728.56;;;21.48;84.38
10064;BME280;5071;52.360;13.134;2022-08-19T17:47:57;100722.00;;;21.52;84.47
10064;BME280;5071;52.360;13.134;2022-08-19T17:53:01;100738.09;;;21.38;85.33
10064;BME280;5071;52.360;13.134;2022-08-19T17:58:03;100746.59;;;21.15;87.09
10064;BME280;5071;52.360;13.134;2022-08-19T18:03:08;100753.53;;;21.04;88.73
10064;BME280;5071;52.360;13.134;2022-08-19T18:08:14;100764.66;;;20.97;89.45
10064;BME280;5071;52.360;13.134;2022-08-19T18:13:16;100760.84;;;20.86;90.67
10064;BME280;5071;52.360;13.134;2022-08-19T18:18:18;100748.72;;;20.77;91.26
10064;BME280;5071;52.360;13.134;2022-08-19T18:23:22;100755.56;;;20.67;91.57
10064;BME280;5071;52.360;13.134;2022-08-19T18:28:44;100764.59;;;20.66;92.10
10064;BME280;5071;52.360;13.134;2022-08-19T18:33:50;100771.25;;;20.58;92.07
10064;BME280;5071;52.360;13.134;2022-08-19T18:38:53;100771.75;;;20.67;92.28
10064;BME280;5071;52.360;13.134;2022-08-19T18:43:55;100787.94;;;20.67;92.08
10064;BME280;5071;52.360;13.134;2022-08-19T18:48:57;100777.31;;;20.64;91.50
10064;BME280;5071;52.360;13.134;2022-08-19T18:54:01;100786.03;;;20.69;91.70
10064;BME280;5071;52.360;13.134;2022-08-19T18:59:02;100788.97;;;20.64;91.50
10064;BME280;5071;52.360;13.134;2022-08-19T19:04:07;100800.66;;;20.65;91.46
10064;BME280;5071;52.360;13.134;2022-08-19T19:09:14;100814.13;;;20.65;90.36
10064;BME280;5071;52.360;13.134;2022-08-19T19:14:20;100813.47;;;20.59;90.87
10064;BME280;5071;52.360;13.134;2022-08-19T19:19:43;100820.47;;;20.64;91.12
10064;BME280;5071;52.360;13.134;2022-08-19T19:24:46;100816.50;;;20.71;91.39
10064;BME280;5071;52.360;13.134;2022-08-19T19:29:49;100816.31;;;20.74;91.61
10064;BME280;5071;52.360;13.134;2022-08-19T19:34:53;100826.00;;;20.78;91.50
10064;BME280;5071;52.360;13.134;2022-08-19T19:39:56;100830.09;;;20.85;91.33
10064;BME280;5071;52.360;13.134;2022-08-19T19:44:58;100826.16;;;20.75;91.00
10064;BME280;5071;52.360;13.134;2022-08-19T19:50:00;100829.00;;;20.72;91.30
10064;BME280;5071;52.360;13.134;2022-08-19T19:55:17;100820.06;;;20.71;91.37
10064;BME280;5071;52.360;13.134;2022-08-19T20:00:20;100839.97;;;20.69;91.48
10064;BME280;5071;52.360;13.134;2022-08-19T20:05:22;100828.22;;;20.70;91.87
10064;BME280;5071;52.360;13.134;2022-08-19T20:10:25;100824.31;;;20.75;91.48
10064;BME280;5071;52.360;13.134;2022-08-19T20:15:27;100824.66;;;20.69;90.96
10064;BME280;5071;52.360;13.134;2022-08-19T20:20:30;100818.41;;;20.69;90.67
10064;BME280;5071;52.360;13.134;2022-08-19T20:25:33;100813.16;;;20.66;91.16
10064;BME280;5071;52.360;13.134;2022-08-19T20:30:38;100804.44;;;20.61;91.56
10064;BME280;5071;52.360;13.134;2022-08-19T20:35:47;100809.97;;;20.57;91.41
10064;BME280;5071;52.360;13.134;2022-08-19T20:40:50;100821.88;;;20.53;90.95
10064;BME280;5071;52.360;13.134;2022-08-19T20:45:52;100825.59;;;20.51;91.17
10064;BME280;5071;52.360;13.134;2022-08-19T20:50:55;100816.50;;;20.53;91.52
10064;BME280;5071;52.360;13.134;2022-08-19T20:55:58;100812.03;;;20.52;90.73
10064;BME280;5071;52.360;13.134;2022-08-19T21:01:01;100799.09;;;20.42;91.11
10064;BME280;5071;52.360;13.134;2022-08-19T21:06:04;100794.75;;;20.39;91.91
10064;BME280;5071;52.360;13.134;2022-08-19T21:11:08;100790.00;;;20.27;92.02
10064;BME280;5071;52.360;13.134;2022-08-19T21:16:10;100804.59;;;20.23;92.29
10064;BME280;5071;52.360;13.134;2022-08-19T21:21:12;100817.13;;;20.24;92.34
10064;BME280;5071;52.360;13.134;2022-08-19T21:26:15;100829.66;;;20.25;92.27
10064;BME280;5071;52.360;13.134;2022-08-19T21:31:17;100815.38;;;20.23;92.06
10064;BME280;5071;52.360;13.134;2022-08-19T21:36:18;100837.66;;;20.26;92.71
10064;BME280;5071;52.360;13.134;2022-08-19T21:41:22;100845.41;;;20.32;92.22
10064;BME280;5071;52.360;13.134;2022-08-19T21:46:24;100848.13;;;20.32;91.98
10064;BME280;5071;52.360;13.134;2022-08-19T21:51:26;100843.28;;;20.39;92.04
10064;BME280;5071;52.360;13.134;2022-08-19T21:56:48;100823.44;;;20.40;91.75
10064;BME280;5071;52.360;13.134;2022-08-19T22:01:50;100838.69;;;20.41;91.74
10064;BME280;5071;52.360;13.134;2022-08-19T22:07:12;100838.63;;;20.43;91.38
10064;BME280;5071;52.360;13.134;2022-08-19T22:12:21;100837.44;;;20.48;91.40
10064;BME280;5071;52.360;13.134;2022-08-19T22:17:24;100841.13;;;20.46;91.44
10064;BME280;5071;52.360;13.134;2022-08-19T22:22:28;100844.88;;;20.43;91.61
10064;BME280;5071;52.360;13.134;2022-08-19T22:27:32;100847.50;;;20.45;91.17
10064;BME280;5071;52.360;13.134;2022-08-19T22:32:34;100844.72;;;20.46;91.24
10064;BME280;5071;52.360;13.134;2022-08-19T22:37:35;100834.94;;;20.44;91.50
10064;BME280;5071;52.360;13.134;2022-08-19T22:42:39;100826.97;;;20.42;91.55
10064;BME280;5071;52.360;13.134;2022-08-19T22:47:41;100815.66;;;20.51;91.02
10064;BME280;5071;52.360;13.134;2022-08-19T22:52:43;100806.97;;;20.46;91.39
10064;BME280;5071;52.360;13.134;2022-08-19T22:57:54;100811.25;;;20.50;90.93
10064;BME280;5071;52.360;13.134;2022-08-19T23:02:57;100818.56;;;20.48;91.38
10064;BME280;5071;52.360;13.134;2022-08-19T23:07:59;100816.19;;;20.42;91.09
10064;BME280;5071;52.360;13.134;2022-08-19T23:13:02;100806.50;;;20.55;90.54
10064;BME280;5071;52.360;13.134;2022-08-19T23:18:04;100804.09;;;20.49;90.72
10064;BME280;5071;52.360;13.134;2022-08-19T23:23:08;100824.09;;;20.45;90.78
10064;BME280;5071;52.360;13.134;2022-08-19T23:28:12;100823.44;;;20.40;91.00
10064;BME280;5071;52.360;13.134;2022-08-19T23:33:16;100810.78;;;20.42;90.86
10064;BME280;5071;52.360;13.134;2022-08-19T23:38:18;100802.22;;;20.34;90.95
10064;BME280;5071;52.360;13.134;2022-08-19T23:43:21;100797.53;;;20.37;90.29
10064;BME280;5071;52.360;13.134;2022-08-19T23:48:26;100781.69;;;20.31;90.86
10064;BME280;5071;52.360;13.134;2022-08-19T23:53:29;100777.63;;;20.23;91.18
10064;BME280;5071;52.360;13.134;2022-08-19T23:58:34;100787.72;;;20.19;91.35
